sensor_id;sensor_type;location;lat;lon;timestamp;temperature;humidity
40534;DHT22;26233;51.894;10.192;2022-09-01T00:02:04;17.90;31.80
40534;DHT22;26233;51.894;10.192;2022-09-01T00:04:34;17.80;31.80
40534;DHT22;26233;51.894;10.192;2022-09-01T00:07:03;17.70;31.80
40534;DHT22;26233;51.894;10.192;2022-09-01T00:09:32;17.70;32.10
40534;DHT22;26233;51.894;10.192;2022-09-01T00:12:01;17.60;32.20
40534;DHT22;26233;51.894;10.192;2022-09-01T00:14:32;17.50;32.90
40534;DHT22;26233;51.894;10.192;2022-09-01T00:17:07;17.50;32.40
40534;DHT22;26233;51.894;10.192;2022-09-01T00:19:35;17.40;32.50
40534;DHT22;26233;51.894;10.192;2022-09-01T00:22:05;17.40;32.60
40534;DHT22;26233;51.894;10.192;2022-09-01T00:24:35;17.30;32.50
40534;DHT22;26233;51.894;10.192;2022-09-01T00:27:05;17.20;32.60
40534;DHT22;26233;51.894;10.192;2022-09-01T00:29:32;17.20;33.30
40534;DHT22;26233;51.894;10.192;2022-09-01T00:31:59;17.10;32.60
40534;DHT22;26233;51.894;10.192;2022-09-01T00:34:27;17.10;32.80
40534;DHT22;26233;51.894;10.192;2022-09-01T00:36:54;17.00;32.80
40534;DHT22;26233;51.894;10.192;2022-09-01T00:39:23;17.00;32.90
40534;DHT22;26233;51.894;10.192;2022-09-01T00:41:56;16.90;33.00
40534;DHT22;26233;51.894;10.192;2022-09-01T00:44:24;16.90;33.00
40534;DHT22;26233;51.894;10.192;2022-09-01T00:46:54;16.80;33.10
40534;DHT22;26233;51.894;10.192;2022-09-01T00:49:28;16.80;33.20
40534;DHT22;26233;51.894;10.192;2022-09-01T00:52:00;16.80;33.40
40534;DHT22;26233;51.894;10.192;2022-09-01T00:54:32;16.70;33.30
40534;DHT22;26233;51.894;10.192;2022-09-01T00:57:03;16.70;33.50
40534;DHT22;26233;51.894;10.192;2022-09-01T00:59:31;16.60;33.40
40534;DHT22;26233;51.894;10.192;2022-09-01T01:01:58;16.60;33.50
40534;DHT22;26233;51.894;10.192;2022-09-01T01:04:26;16.50;33.70
40534;DHT22;26233;51.894;10.192;2022-09-01T01:07:00;16.50;33.70
40534;DHT22;26233;51.894;10.192;2022-09-01T01:09:29;16.40;34.00
40534;DHT22;26233;51.894;10.192;2022-09-01T01:12:03;16.40;33.90
40534;DHT22;26233;51.894;10.192;2022-09-01T01:14:34;16.40;33.90
40534;DHT22;26233;51.894;10.192;2022-09-01T01:17:01;16.30;34.00
40534;DHT22;26233;51.894;10.192;2022-09-01T01:19:38;16.20;33.90
40534;DHT22;26233;51.894;10.192;2022-09-01T01:22:31;16.20;34.30
40534;DHT22;26233;51.894;10.192;2022-09-01T01:25:21;16.20;34.40
40534;DHT22;26233;51.894;10.192;2022-09-01T01:27:49;16.20;34.30
40534;DHT22;26233;51.894;10.192;2022-09-01T01:30:18;16.20;34.40
40534;DHT22;26233;51.894;10.192;2022-09-01T01:32:48;16.10;34.40
40534;DHT22;26233;51.894;10.192;2022-09-01T01:35:17;16.10;34.40
40534;DHT22;26233;51.894;10.192;2022-09-01T01:37:49;16.10;34.50
40534;DHT22;26233;51.894;10.192;2022-09-01T01:40:19;16.10;34.70
40534;DHT22;26233;51.894;10.192;2022-09-01T01:42:50;16.00;34.90
40534;DHT22;26233;51.894;10.192;2022-09-01T01:45:22;16.10;35.10
40534;DHT22;26233;51.894;10.192;2022-09-01T01:47:51;16.10;35.30
40534;DHT22;26233;51.894;10.192;2022-09-01T01:50:19;16.10;35.40
40534;DHT22;26233;51.894;10.192;2022-09-01T01:52:48;16.20;35.60
40534;DHT22;26233;51.894;10.192;2022-09-01T01:55:16;16.30;35.60
40534;DHT22;26233;51.894;10.192;2022-09-01T01:57:46;16.40;35.70
40534;DHT22;26233;51.894;10.192;2022-09-01T02:00:17;16.50;35.90
40534;DHT22;26233;51.894;10.192;2022-09-01T02:02:46;16.50;35.80
40534;DHT22;26233;51.894;10.192;2022-09-01T02:05:18;16.60;36.00
40534;DHT22;26233;51.894;10.192;2022-09-01T02:07:51;16.70;35.90
40534;DHT22;26233;51.894;10.192;2022-09-01T02:10:23;16.80;36.10
40534;DHT22;26233;51.894;10.192;2022-09-01T02:12:52;16.80;36.00
40534;DHT22;26233;51.894;10.192;2022-09-01T02:15:19;16.90;36.70
40534;DHT22;26233;51.894;10.192;2022-09-01T02:17:46;16.90;36.10
40534;DHT22;26233;51.894;10.192;2022-09-01T02:20:15;16.90;36.10
40534;DHT22;26233;51.894;10.192;2022-09-01T02:22:42;17.00;36.40
40534;DHT22;26233;51.894;10.192;2022-09-01T02:25:11;17.00;36.20
40534;DHT22;26233;51.894;10.192;2022-09-01T02:27:41;17.10;36.30
40534;DHT22;26233;51.894;10.192;2022-09-01T02:30:18;17.10;36.20
40534;DHT22;26233;51.894;10.192;2022-09-01T02:32:46;17.10;36.30
40534;DHT22;26233;51.894;10.192;2022-09-01T02:35:13;17.10;36.30
40534;DHT22;26233;51.894;10.192;2022-09-01T02:37:41;17.20;36.40
40534;DHT22;26233;51.894;10.192;2022-09-01T02:40:08;17.10;36.20
40534;DHT22;26233;51.894;10.192;2022-09-01T02:42:37;17.10;36.30
40534;DHT22;26233;51.894;10.192;2022-09-01T02:45:08;17.10;36.40
40534;DHT22;26233;51.894;10.192;2022-09-01T02:47:43;17.10;36.30
40534;DHT22;26233;51.894;10.192;2022-09-01T02:50:13;17.20;36.50
40534;DHT22;26233;51.894;10.192;2022-09-01T02:52:42;17.20;36.50
40534;DHT22;26233;51.894;10.192;2022-09-01T02:55:11;17.20;36.60
40534;DHT22;26233;51.894;10.192;2022-09-01T02:57:38;17.20;36.60
40534;DHT22;26233;51.894;10.192;2022-09-01T03:00:08;17.20;36.60
40534;DHT22;26233;51.894;10.192;2022-09-01T03:02:50;17.20;36.70
40534;DHT22;26233;51.894;10.192;2022-09-01T03:05:19;17.20;36.80
40534;DHT22;26233;51.894;10.192;2022-09-01T03:07:51;17.20;36.70
40534;DHT22;26233;51.894;10.192;2022-09-01T03:10:25;17.20;36.90
40534;DHT22;26233;51.894;10.192;2022-09-01T03:12:58;17.20;36.80
40534;DHT22;26233;51.894;10.192;2022-09-01T03:15:29;17.20;37.40
40534;DHT22;26233;51.894;10.192;2022-09-01T03:17:59;17.20;36.80
40534;DHT22;26233;51.894;10.192;2022-09-01T03:20:28;17.20;36.90
40534;DHT22;26233;51.894;10.192;2022-09-01T03:22:59;17.10;36.80
40534;DHT22;26233;51.894;10.192;2022-09-01T03:25:26;17.20;36.90
40534;DHT22;26233;51.894;10.192;2022-09-01T03:27:55;17.10;36.80
40534;DHT22;26233;51.894;10.192;2022-09-01T03:30:28;17.10;36.90
40534;DHT22;26233;51.894;10.192;2022-09-01T03:32:57;17.10;36.90
40534;DHT22;26233;51.894;10.192;2022-09-01T03:35:27;17.10;37.00
40534;DHT22;26233;51.894;10.192;2022-09-01T03:37:56;17.10;37.00
40534;DHT22;26233;51.894;10.192;2022-09-01T03:40:29;17.10;37.00
40534;DHT22;26233;51.894;10.192;2022-09-01T03:42:58;17.10;37.10
40534;DHT22;26233;51.894;10.192;2022-09-01T03:45:31;17.10;37.10
40534;DHT22;26233;51.894;10.192;2022-09-01T03:48:05;17.00;37.10
40534;DHT22;26233;51.894;10.192;2022-09-01T03:50:38;17.10;37.30
40534;DHT22;26233;51.894;10.192;2022-09-01T03:53:12;17.10;37.40
40534;DHT22;26233;51.894;10.192;2022-09-01T03:55:42;17.00;37.20
40534;DHT22;26233;51.894;10.192;2022-09-01T03:58:12;17.00;37.40
40534;DHT22;26233;51.894;10.192;2022-09-01T04:00:46;17.10;37.40
40534;DHT22;26233;51.894;10.192;2022-09-01T04:03:17;17.10;37.40
40534;DHT22;26233;51.894;10.192;2022-09-01T04:05:46;17.10;37.50
40534;DHT22;26233;51.894;10.192;2022-09-01T04:08:16;17.10;37.50
40534;DHT22;26233;51.894;10.192;2022-09-01T04:10:46;17.00;37.40
40534;DHT22;26233;51.894;10.192;2022-09-01T04:13:16;17.00;37.50
40534;DHT22;26233;51.894;10.192;2022-09-01T04:15:46;17.00;37.50
40534;DHT22;26233;51.894;10.192;2022-09-01T04:18:15;17.00;37.50
40534;DHT22;26233;51.894;10.192;2022-09-01T04:20:46;17.00;37.60
40534;DHT22;26233;51.894;10.192;2022-09-01T04:23:17;17.00;37.60
40534;DHT22;26233;51.894;10.192;2022-09-01T04:25:51;17.00;37.70
40534;DHT22;26233;51.894;10.192;2022-09-01T04:28:22;16.90;37.60
40534;DHT22;26233;51.894;10.192;2022-09-01T04:30:55;16.90;38.30
40534;DHT22;26233;51.894;10.192;2022-09-01T04:33:26;16.90;37.80
40534;DHT22;26233;51.894;10.192;2022-09-01T04:36:01;16.90;37.80
40534;DHT22;26233;51.894;10.192;2022-09-01T04:38:29;16.90;37.80
40534;DHT22;26233;51.894;10.192;2022-09-01T04:41:03;16.90;37.90
40534;DHT22;26233;51.894;10.192;2022-09-01T04:43:32;16.90;38.00
40534;DHT22;26233;51.894;10.192;2022-09-01T04:45:59;16.80;37.90
40534;DHT22;26233;51.894;10.192;2022-09-01T04:48:29;16.80;38.00
40534;DHT22;26233;51.894;10.192;2022-09-01T04:50:56;16.80;38.00
40534;DHT22;26233;51.894;10.192;2022-09-01T04:53:23;16.80;38.00
40534;DHT22;26233;51.894;10.192;2022-09-01T04:55:54;16.80;38.10
40534;DHT22;26233;51.894;10.192;2022-09-01T04:58:21;16.80;38.20
40534;DHT22;26233;51.894;10.192;2022-09-01T05:00:50;16.80;38.20
40534;DHT22;26233;51.894;10.192;2022-09-01T05:03:18;16.80;38.90
40534;DHT22;26233;51.894;10.192;2022-09-01T05:05:49;16.80;38.30
40534;DHT22;26233;51.894;10.192;2022-09-01T05:08:28;16.90;38.40
40534;DHT22;26233;51.894;10.192;2022-09-01T05:11:05;16.90;38.40
40534;DHT22;26233;51.894;10.192;2022-09-01T05:13:33;16.90;38.40
40534;DHT22;26233;51.894;10.192;2022-09-01T05:16:06;16.90;38.30
40534;DHT22;26233;51.894;10.192;2022-09-01T05:18:38;16.80;38.20
40534;DHT22;26233;51.894;10.192;2022-09-01T05:21:08;16.80;38.20
40534;DHT22;26233;51.894;10.192;2022-09-01T05:23:35;16.80;38.20
40534;DHT22;26233;51.894;10.192;2022-09-01T05:26:11;16.70;38.20
40534;DHT22;26233;51.894;10.192;2022-09-01T05:28:42;16.60;38.50
40534;DHT22;26233;51.894;10.192;2022-09-01T05:31:09;16.60;38.30
40534;DHT22;26233;51.894;10.192;2022-09-01T05:33:37;16.60;38.50
40534;DHT22;26233;51.894;10.192;2022-09-01T05:36:12;16.60;38.70
40534;DHT22;26233;51.894;10.192;2022-09-01T05:38:41;16.60;39.10
40534;DHT22;26233;51.894;10.192;2022-09-01T05:41:10;16.80;39.80
40534;DHT22;26233;51.894;10.192;2022-09-01T05:43:39;17.00;40.20
40534;DHT22;26233;51.894;10.192;2022-09-01T05:46:13;17.20;39.90
40534;DHT22;26233;51.894;10.192;2022-09-01T05:48:41;17.40;39.60
40534;DHT22;26233;51.894;10.192;2022-09-01T05:51:11;17.60;39.30
40534;DHT22;26233;51.894;10.192;2022-09-01T05:53:41;17.70;39.10
40534;DHT22;26233;51.894;10.192;2022-09-01T05:56:09;17.80;39.00
40534;DHT22;26233;51.894;10.192;2022-09-01T05:58:38;17.80;39.00
40534;DHT22;26233;51.894;10.192;2022-09-01T06:01:09;17.80;38.90
40534;DHT22;26233;51.894;10.192;2022-09-01T06:03:47;17.80;38.90
40534;DHT22;26233;51.894;10.192;2022-09-01T06:06:24;17.90;39.00
40534;DHT22;26233;51.894;10.192;2022-09-01T06:08:53;17.90;39.10
40534;DHT22;26233;51.894;10.192;2022-09-01T06:11:24;17.90;39.10
40534;DHT22;26233;51.894;10.192;2022-09-01T06:13:55;18.00;39.30
40534;DHT22;26233;51.894;10.192;2022-09-01T06:16:23;18.20;39.70
40534;DHT22;26233;51.894;10.192;2022-09-01T06:18:50;18.40;40.10
40534;DHT22;26233;51.894;10.192;2022-09-01T06:21:20;18.70;41.00
40534;DHT22;26233;51.894;10.192;2022-09-01T06:23:50;19.20;41.60
40534;DHT22;26233;51.894;10.192;2022-09-01T06:26:20;19.70;42.10
40534;DHT22;26233;51.894;10.192;2022-09-01T06:28:52;20.20;42.50
40534;DHT22;26233;51.894;10.192;2022-09-01T06:31:20;20.90;42.80
40534;DHT22;26233;51.894;10.192;2022-09-01T06:33:48;21.50;42.80
40534;DHT22;26233;51.894;10.192;2022-09-01T06:36:21;22.20;42.70
40534;DHT22;26233;51.894;10.192;2022-09-01T06:38:51;22.80;42.40
40534;DHT22;26233;51.894;10.192;2022-09-01T06:41:21;23.50;42.20
40534;DHT22;26233;51.894;10.192;2022-09-01T06:43:49;24.00;41.70
40534;DHT22;26233;51.894;10.192;2022-09-01T06:46:19;24.60;41.50
40534;DHT22;26233;51.894;10.192;2022-09-01T06:48:47;25.00;41.10
40534;DHT22;26233;51.894;10.192;2022-09-01T06:51:15;25.50;40.80
40534;DHT22;26233;51.894;10.192;2022-09-01T06:53:45;26.00;40.40
40534;DHT22;26233;51.894;10.192;2022-09-01T06:56:16;26.40;39.60
40534;DHT22;26233;51.894;10.192;2022-09-01T06:58:44;26.90;39.50
40534;DHT22;26233;51.894;10.192;2022-09-01T07:01:13;27.20;38.90
40534;DHT22;26233;51.894;10.192;2022-09-01T07:03:45;27.60;38.50
40534;DHT22;26233;51.894;10.192;2022-09-01T07:06:13;27.90;38.10
40534;DHT22;26233;51.894;10.192;2022-09-01T07:08:41;28.20;37.80
40534;DHT22;26233;51.894;10.192;2022-09-01T07:11:17;28.50;37.90
40534;DHT22;26233;51.894;10.192;2022-09-01T07:13:50;28.70;36.70
40534;DHT22;26233;51.894;10.192;2022-09-01T07:16:19;28.90;36.70
40534;DHT22;26233;51.894;10.192;2022-09-01T07:18:47;29.20;36.50
40534;DHT22;26233;51.894;10.192;2022-09-01T07:21:15;29.40;36.40
40534;DHT22;26233;51.894;10.192;2022-09-01T07:23:42;29.70;36.30
40534;DHT22;26233;51.894;10.192;2022-09-01T07:26:11;30.00;36.00
40534;DHT22;26233;51.894;10.192;2022-09-01T07:28:44;30.10;35.00
40534;DHT22;26233;51.894;10.192;2022-09-01T07:31:18;30.30;34.70
40534;DHT22;26233;51.894;10.192;2022-09-01T07:33:48;30.40;34.40
40534;DHT22;26233;51.894;10.192;2022-09-01T07:36:18;30.40;34.20
40534;DHT22;26233;51.894;10.192;2022-09-01T07:38:46;30.50;33.90
40534;DHT22;26233;51.894;10.192;2022-09-01T07:41:21;30.60;33.90
40534;DHT22;26233;51.894;10.192;2022-09-01T07:43:51;30.60;33.50
40534;DHT22;26233;51.894;10.192;2022-09-01T07:46:20;30.70;33.30
40534;DHT22;26233;51.894;10.192;2022-09-01T07:48:48;30.70;32.90
40534;DHT22;26233;51.894;10.192;2022-09-01T07:51:23;30.80;32.90
40534;DHT22;26233;51.894;10.192;2022-09-01T07:53:53;30.70;32.40
40534;DHT22;26233;51.894;10.192;2022-09-01T07:56:22;30.80;32.50
40534;DHT22;26233;51.894;10.192;2022-09-01T07:58:51;30.90;33.10
40534;DHT22;26233;51.894;10.192;2022-09-01T08:01:21;30.90;32.40
40534;DHT22;26233;51.894;10.192;2022-09-01T08:03:51;31.00;32.20
40534;DHT22;26233;51.894;10.192;2022-09-01T08:06:21;31.10;31.80
40534;DHT22;26233;51.894;10.192;2022-09-01T08:08:52;31.10;31.60
40534;DHT22;26233;51.894;10.192;2022-09-01T08:11:25;31.10;31.30
40534;DHT22;26233;51.894;10.192;2022-09-01T08:13:55;31.10;31.40
40534;DHT22;26233;51.894;10.192;2022-09-01T08:16:23;31.20;31.50
40534;DHT22;26233;51.894;10.192;2022-09-01T08:18:52;31.40;31.70
40534;DHT22;26233;51.894;10.192;2022-09-01T08:21:23;31.50;31.90
40534;DHT22;26233;51.894;10.192;2022-09-01T08:23:53;31.70;31.30
40534;DHT22;26233;51.894;10.192;2022-09-01T08:26:24;31.90;31.30
40534;DHT22;26233;51.894;10.192;2022-09-01T08:28:52;32.10;31.20
40534;DHT22;26233;51.894;10.192;2022-09-01T08:31:22;32.30;31.10
40534;DHT22;26233;51.894;10.192;2022-09-01T08:33:52;32.40;31.10
40534;DHT22;26233;51.894;10.192;2022-09-01T08:36:20;32.50;29.70
40534;DHT22;26233;51.894;10.192;2022-09-01T08:38:48;32.30;29.30
40534;DHT22;26233;51.894;10.192;2022-09-01T08:41:17;32.20;29.50
40534;DHT22;26233;51.894;10.192;2022-09-01T08:43:59;32.20;29.80
40534;DHT22;26233;51.894;10.192;2022-09-01T08:46:33;32.20;29.40
40534;DHT22;26233;51.894;10.192;2022-09-01T08:49:07;32.30;29.50
40534;DHT22;26233;51.894;10.192;2022-09-01T08:51:45;32.30;29.40
40534;DHT22;26233;51.894;10.192;2022-09-01T08:54:21;32.40;29.30
40534;DHT22;26233;51.894;10.192;2022-09-01T08:56:57;32.60;29.00
40534;DHT22;26233;51.894;10.192;2022-09-01T08:59:28;32.60;29.20
40534;DHT22;26233;51.894;10.192;2022-09-01T09:02:01;32.70;29.10
40534;DHT22;26233;51.894;10.192;2022-09-01T09:04:50;32.80;29.00
40534;DHT22;26233;51.894;10.192;2022-09-01T09:07:36;32.90;28.30
40534;DHT22;26233;51.894;10.192;2022-09-01T09:10:14;32.90;28.50
40534;DHT22;26233;51.894;10.192;2022-09-01T09:12:56;33.00;28.50
40534;DHT22;26233;51.894;10.192;2022-09-01T09:15:38;33.00;28.30
40534;DHT22;26233;51.894;10.192;2022-09-01T09:18:16;33.00;28.10
40534;DHT22;26233;51.894;10.192;2022-09-01T09:20:46;33.10;28.00
40534;DHT22;26233;51.894;10.192;2022-09-01T09:23:22;33.10;28.10
40534;DHT22;26233;51.894;10.192;2022-09-01T09:25:51;33.10;27.90
40534;DHT22;26233;51.894;10.192;2022-09-01T09:28:23;33.10;27.70
40534;DHT22;26233;51.894;10.192;2022-09-01T09:30:50;33.00;27.60
40534;DHT22;26233;51.894;10.192;2022-09-01T09:33:33;33.00;27.70
40534;DHT22;26233;51.894;10.192;2022-09-01T09:36:19;33.00;27.50
40534;DHT22;26233;51.894;10.192;2022-09-01T09:39:06;33.00;27.40
40534;DHT22;26233;51.894;10.192;2022-09-01T09:41:36;33.00;27.80
40534;DHT22;26233;51.894;10.192;2022-09-01T09:44:20;33.00;27.30
40534;DHT22;26233;51.894;10.192;2022-09-01T09:46:51;32.90;27.00
40534;DHT22;26233;51.894;10.192;2022-09-01T09:49:20;32.90;27.30
40534;DHT22;26233;51.894;10.192;2022-09-01T09:51:51;32.90;27.10
40534;DHT22;26233;51.894;10.192;2022-09-01T09:54:22;32.90;27.10
40534;DHT22;26233;51.894;10.192;2022-09-01T09:57:08;32.90;27.30
40534;DHT22;26233;51.894;10.192;2022-09-01T09:59:45;32.80;26.50
40534;DHT22;26233;51.894;10.192;2022-09-01T10:02:26;32.60;26.30
40534;DHT22;26233;51.894;10.192;2022-09-01T10:04:57;32.10;26.20
40534;DHT22;26233;51.894;10.192;2022-09-01T10:07:31;31.80;26.50
40534;DHT22;26233;51.894;10.192;2022-09-01T10:10:02;31.60;26.70
40534;DHT22;26233;51.894;10.192;2022-09-01T10:12:32;31.30;26.70
40534;DHT22;26233;51.894;10.192;2022-09-01T10:15:03;31.00;26.40
40534;DHT22;26233;51.894;10.192;2022-09-01T10:17:37;30.60;26.30
40534;DHT22;26233;51.894;10.192;2022-09-01T10:20:10;30.20;26.20
40534;DHT22;26233;51.894;10.192;2022-09-01T10:22:41;29.70;26.20
40534;DHT22;26233;51.894;10.192;2022-09-01T10:25:14;29.40;26.70
40534;DHT22;26233;51.894;10.192;2022-09-01T10:27:48;29.40;27.40
40534;DHT22;26233;51.894;10.192;2022-09-01T10:30:20;29.40;27.60
40534;DHT22;26233;51.894;10.192;2022-09-01T10:32:49;29.40;27.40
40534;DHT22;26233;51.894;10.192;2022-09-01T10:35:21;29.60;27.50
40534;DHT22;26233;51.894;10.192;2022-09-01T10:37:51;29.80;27.60
40534;DHT22;26233;51.894;10.192;2022-09-01T10:40:38;30.20;27.80
40534;DHT22;26233;51.894;10.192;2022-09-01T10:43:40;30.60;28.00
40534;DHT22;26233;51.894;10.192;2022-09-01T10:49:19;31.10;26.50
40534;DHT22;26233;51.894;10.192;2022-09-01T10:52:02;31.10;26.20
40534;DHT22;26233;51.894;10.192;2022-09-01T10:54:55;31.00;26.40
40534;DHT22;26233;51.894;10.192;2022-09-01T10:57:35;31.00;26.30
40534;DHT22;26233;51.894;10.192;2022-09-01T11:00:44;31.00;26.20
40534;DHT22;26233;51.894;10.192;2022-09-01T11:03:47;30.90;25.80
40534;DHT22;26233;51.894;10.192;2022-09-01T11:06:52;30.60;25.30
40534;DHT22;26233;51.894;10.192;2022-09-01T11:09:33;30.40;25.60
40534;DHT22;26233;51.894;10.192;2022-09-01T11:12:25;30.10;25.30
40534;DHT22;26233;51.894;10.192;2022-09-01T11:15:05;30.00;25.70
40534;DHT22;26233;51.894;10.192;2022-09-01T11:17:56;30.00;25.70
40534;DHT22;26233;51.894;10.192;2022-09-01T11:20:31;29.80;25.40
40534;DHT22;26233;51.894;10.192;2022-09-01T11:23:02;29.60;25.50
40534;DHT22;26233;51.894;10.192;2022-09-01T11:25:37;29.50;26.10
40534;DHT22;26233;51.894;10.192;2022-09-01T11:28:39;29.50;26.00
40534;DHT22;26233;51.894;10.192;2022-09-01T11:31:29;29.60;26.20
40534;DHT22;26233;51.894;10.192;2022-09-01T11:36:51;30.10;26.50
40534;DHT22;26233;51.894;10.192;2022-09-01T11:39:35;30.50;26.50
40534;DHT22;26233;51.894;10.192;2022-09-01T11:42:10;30.80;26.10
40534;DHT22;26233;51.894;10.192;2022-09-01T11:44:48;31.10;25.90
40534;DHT22;26233;51.894;10.192;2022-09-01T11:47:21;31.20;25.80
40534;DHT22;26233;51.894;10.192;2022-09-01T11:49:54;31.40;25.60
40534;DHT22;26233;51.894;10.192;2022-09-01T11:52:26;31.60;25.30
40534;DHT22;26233;51.894;10.192;2022-09-01T11:54:56;31.60;25.20
40534;DHT22;26233;51.894;10.192;2022-09-01T11:57:28;31.80;25.30
40534;DHT22;26233;51.894;10.192;2022-09-01T11:59:58;31.90;25.10
40534;DHT22;26233;51.894;10.192;2022-09-01T12:02:29;32.00;25.10
40534;DHT22;26233;51.894;10.192;2022-09-01T12:04:58;32.00;24.90
40534;DHT22;26233;51.894;10.192;2022-09-01T12:07:37;32.10;25.00
40534;DHT22;26233;51.894;10.192;2022-09-01T12:10:18;32.10;24.60
40534;DHT22;26233;51.894;10.192;2022-09-01T12:12:48;32.10;24.50
40534;DHT22;26233;51.894;10.192;2022-09-01T12:15:20;32.10;24.30
40534;DHT22;26233;51.894;10.192;2022-09-01T12:17:49;32.00;24.30
40534;DHT22;26233;51.894;10.192;2022-09-01T12:20:26;32.00;24.20
40534;DHT22;26233;51.894;10.192;2022-09-01T12:22:55;31.90;23.90
40534;DHT22;26233;51.894;10.192;2022-09-01T12:25:26;31.70;23.60
40534;DHT22;26233;51.894;10.192;2022-09-01T12:27:54;31.60;23.20
40534;DHT22;26233;51.894;10.192;2022-09-01T12:30:22;31.40;23.30
40534;DHT22;26233;51.894;10.192;2022-09-01T12:32:50;31.20;23.80
40534;DHT22;26233;51.894;10.192;2022-09-01T12:35:21;31.00;23.40
40534;DHT22;26233;51.894;10.192;2022-09-01T12:37:49;31.00;23.60
40534;DHT22;26233;51.894;10.192;2022-09-01T12:40:24;30.90;23.40
40534;DHT22;26233;51.894;10.192;2022-09-01T12:43:00;30.80;23.40
40534;DHT22;26233;51.894;10.192;2022-09-01T12:45:45;30.70;23.60
40534;DHT22;26233;51.894;10.192;2022-09-01T12:48:24;30.70;22.70
40534;DHT22;26233;51.894;10.192;2022-09-01T12:50:53;30.70;23.20
40534;DHT22;26233;51.894;10.192;2022-09-01T12:53:26;30.70;23.30
40534;DHT22;26233;51.894;10.192;2022-09-01T12:59:04;30.50;23.10
40534;DHT22;26233;51.894;10.192;2022-09-01T13:01:37;30.50;23.20
40534;DHT22;26233;51.894;10.192;2022-09-01T13:04:25;30.50;23.20
40534;DHT22;26233;51.894;10.192;2022-09-01T13:06:58;30.50;23.10
40534;DHT22;26233;51.894;10.192;2022-09-01T13:09:27;30.50;23.80
40534;DHT22;26233;51.894;10.192;2022-09-01T13:12:15;30.50;23.10
40534;DHT22;26233;51.894;10.192;2022-09-01T13:14:43;30.40;22.70
40534;DHT22;26233;51.894;10.192;2022-09-01T13:17:10;30.40;23.00
40534;DHT22;26233;51.894;10.192;2022-09-01T13:19:38;30.30;22.90
40534;DHT22;26233;51.894;10.192;2022-09-01T13:22:05;30.30;22.90
40534;DHT22;26233;51.894;10.192;2022-09-01T13:24:32;30.30;22.80
40534;DHT22;26233;51.894;10.192;2022-09-01T13:26:59;30.20;22.70
40534;DHT22;26233;51.894;10.192;2022-09-01T13:29:28;30.10;22.70
40534;DHT22;26233;51.894;10.192;2022-09-01T13:31:55;30.10;22.80
40534;DHT22;26233;51.894;10.192;2022-09-01T13:34:23;30.10;22.70
40534;DHT22;26233;51.894;10.192;2022-09-01T13:36:52;30.10;22.60
40534;DHT22;26233;51.894;10.192;2022-09-01T13:39:19;30.00;22.70
40534;DHT22;26233;51.894;10.192;2022-09-01T13:41:47;30.00;22.60
40534;DHT22;26233;51.894;10.192;2022-09-01T13:44:16;30.00;22.50
40534;DHT22;26233;51.894;10.192;2022-09-01T13:46:45;30.00;22.60
40534;DHT22;26233;51.894;10.192;2022-09-01T13:49:13;29.90;22.50
40534;DHT22;26233;51.894;10.192;2022-09-01T13:51:40;30.00;22.40
40534;DHT22;26233;51.894;10.192;2022-09-01T13:54:11;29.90;22.20
40534;DHT22;26233;51.894;10.192;2022-09-01T13:56:38;29.90;22.20
40534;DHT22;26233;51.894;10.192;2022-09-01T13:59:05;29.80;22.30
40534;DHT22;26233;51.894;10.192;2022-09-01T14:01:32;29.70;22.30
40534;DHT22;26233;51.894;10.192;2022-09-01T14:04:01;29.50;22.20
40534;DHT22;26233;51.894;10.192;2022-09-01T14:06:30;29.40;22.20
40534;DHT22;26233;51.894;10.192;2022-09-01T14:08:58;29.20;22.10
40534;DHT22;26233;51.894;10.192;2022-09-01T14:11:25;28.90;21.90
40534;DHT22;26233;51.894;10.192;2022-09-01T14:13:54;28.70;22.00
40534;DHT22;26233;51.894;10.192;2022-09-01T14:16:21;28.40;22.00
40534;DHT22;26233;51.894;10.192;2022-09-01T14:18:49;28.20;22.10
40534;DHT22;26233;51.894;10.192;2022-09-01T14:21:18;28.00;22.20
40534;DHT22;26233;51.894;10.192;2022-09-01T14:23:45;27.90;22.30
40534;DHT22;26233;51.894;10.192;2022-09-01T14:26:14;27.70;22.40
40534;DHT22;26233;51.894;10.192;2022-09-01T14:28:43;27.40;22.40
40534;DHT22;26233;51.894;10.192;2022-09-01T14:31:14;27.30;22.50
40534;DHT22;26233;51.894;10.192;2022-09-01T14:33:43;27.10;22.60
40534;DHT22;26233;51.894;10.192;2022-09-01T14:36:18;26.80;22.60
40534;DHT22;26233;51.894;10.192;2022-09-01T14:38:48;26.60;22.60
40534;DHT22;26233;51.894;10.192;2022-09-01T14:41:18;26.50;22.80
40534;DHT22;26233;51.894;10.192;2022-09-01T14:43:46;26.40;22.90
40534;DHT22;26233;51.894;10.192;2022-09-01T14:46:15;26.30;23.10
40534;DHT22;26233;51.894;10.192;2022-09-01T14:48:44;26.30;23.20
40534;DHT22;26233;51.894;10.192;2022-09-01T14:51:21;26.40;23.40
40534;DHT22;26233;51.894;10.192;2022-09-01T14:53:50;26.50;23.50
40534;DHT22;26233;51.894;10.192;2022-09-01T14:56:18;26.60;23.50
40534;DHT22;26233;51.894;10.192;2022-09-01T14:58:46;26.70;23.50
40534;DHT22;26233;51.894;10.192;2022-09-01T15:01:15;26.80;23.90
40534;DHT22;26233;51.894;10.192;2022-09-01T15:03:43;26.90;23.50
40534;DHT22;26233;51.894;10.192;2022-09-01T15:06:11;26.80;23.10
40534;DHT22;26233;51.894;10.192;2022-09-01T15:08:41;26.80;23.10
40534;DHT22;26233;51.894;10.192;2022-09-01T15:11:09;26.60;22.90
40534;DHT22;26233;51.894;10.192;2022-09-01T15:13:37;26.60;23.00
40534;DHT22;26233;51.894;10.192;2022-09-01T15:16:11;26.40;22.90
40534;DHT22;26233;51.894;10.192;2022-09-01T15:18:39;26.40;23.00
40534;DHT22;26233;51.894;10.192;2022-09-01T15:21:06;26.30;23.10
40534;DHT22;26233;51.894;10.192;2022-09-01T15:23:34;26.30;23.20
40534;DHT22;26233;51.894;10.192;2022-09-01T15:26:02;26.20;23.20
40534;DHT22;26233;51.894;10.192;2022-09-01T15:28:29;26.10;23.60
40534;DHT22;26233;51.894;10.192;2022-09-01T15:30:56;26.00;23.10
40534;DHT22;26233;51.894;10.192;2022-09-01T15:33:24;25.90;23.20
40534;DHT22;26233;51.894;10.192;2022-09-01T15:35:54;25.90;23.20
40534;DHT22;26233;51.894;10.192;2022-09-01T15:38:21;25.90;23.40
40534;DHT22;26233;51.894;10.192;2022-09-01T15:40:48;25.90;23.30
40534;DHT22;26233;51.894;10.192;2022-09-01T15:43:16;25.80;23.20
40534;DHT22;26233;51.894;10.192;2022-09-01T15:45:45;25.80;23.30
40534;DHT22;26233;51.894;10.192;2022-09-01T15:48:12;25.70;23.20
40534;DHT22;26233;51.894;10.192;2022-09-01T15:50:39;25.70;23.20
40534;DHT22;26233;51.894;10.192;2022-09-01T15:53:07;25.70;23.30